createdAt,value
2018-09-19T00:00:05.211Z,4.93
2018-09-19T00:02:35.060Z,5.20
2018-09-19T00:05:04.784Z,5.53
2018-09-19T00:07:34.237Z,4.65
2018-09-19T00:10:04.518Z,5.00
2018-09-19T00:12:34.067Z,5.30
2018-09-19T00:15:03.591Z,4.95
2018-09-19T00:17:33.084Z,5.03
2018-09-19T00:20:02.506Z,5.03
2018-09-19T00:22:32.018Z,5.23
2018-09-19T00:25:01.394Z,5.63
2018-09-19T00:27:30.643Z,5.07
2018-09-19T00:30:00.692Z,5.47
2018-09-19T00:32:31.049Z,5.00
2018-09-19T00:35:00.353Z,5.45
2018-09-19T00:37:29.717Z,6.00
2018-09-19T00:40:00.090Z,5.53
2018-09-19T00:42:29.379Z,5.70
2018-09-19T00:44:58.936Z,5.00
2018-09-19T00:47:28.315Z,5.55
2018-09-19T00:49:57.544Z,5.33
2018-09-19T00:52:26.895Z,5.50
2018-09-19T00:54:56.260Z,5.15
2018-09-19T00:57:26.105Z,5.20
2018-09-19T00:59:55.579Z,5.20
2018-09-19T01:02:24.820Z,5.00
2018-09-19T01:04:54.054Z,5.55
2018-09-19T01:07:23.224Z,5.90
2018-09-19T01:09:52.668Z,5.95
2018-09-19T01:12:22.508Z,6.05
2018-09-19T01:14:51.791Z,5.33
2018-09-19T01:17:21.069Z,6.00
2018-09-19T01:19:50.468Z,4.80
2018-09-19T01:22:19.958Z,5.10
2018-09-19T01:24:49.463Z,4.60
2018-09-19T01:27:18.784Z,5.00
2018-09-19T01:29:48.220Z,4.90
2018-09-19T01:32:17.694Z,5.23
2018-09-19T01:34:47.395Z,4.90
2018-09-19T01:37:16.816Z,5.40
2018-09-19T01:39:46.785Z,5.90
2018-09-19T01:42:16.151Z,5.75
2018-09-19T01:44:45.423Z,5.20
2018-09-19T01:47:14.673Z,5.70
2018-09-19T01:49:44.088Z,5.63
2018-09-19T01:52:14.635Z,5.83
2018-09-19T01:54:43.971Z,5.50
2018-09-19T01:57:13.441Z,5.40
2018-09-19T01:59:42.784Z,6.03
2018-09-19T02:02:12.104Z,6.43
2018-09-19T02:04:42.449Z,6.25
2018-09-19T02:07:11.697Z,5.80
2018-09-19T02:09:41.099Z,6.23
2018-09-19T02:12:10.343Z,6.47
2018-09-19T02:14:39.709Z,6.80
2018-09-19T02:17:14.819Z,5.80
2018-09-19T02:19:44.165Z,6.65
2018-09-19T02:22:13.383Z,6.40
2018-09-19T02:24:42.760Z,5.90
2018-09-19T02:27:12.745Z,6.30
2018-09-19T02:29:42.212Z,6.50
2018-09-19T02:32:11.491Z,6.53
2018-09-19T02:34:40.826Z,6.60
2018-09-19T02:37:10.034Z,6.70
2018-09-19T02:39:40.305Z,8.25
2018-09-19T02:42:10.097Z,9.40
2018-09-19T02:44:39.346Z,9.30
2018-09-19T03:21:48.709Z,9.25
2018-09-19T03:24:18.134Z,7.40
2018-09-19T03:26:47.731Z,8.80
2018-09-19T03:29:17.278Z,8.30
2018-09-19T03:36:44.010Z,8.10
2018-09-19T03:39:13.332Z,8.25
2018-09-19T03:41:43.259Z,8.35
2018-09-19T03:44:12.492Z,9.20
2018-09-19T03:46:41.799Z,8.20
2018-09-19T03:49:11.124Z,8.33
2018-09-19T03:51:41.048Z,8.20
2018-09-19T03:54:10.397Z,9.00
2018-09-19T03:56:39.793Z,8.30
2018-09-19T03:59:09.402Z,8.23
2018-09-19T04:01:38.670Z,8.70
2018-09-19T04:04:08.698Z,8.65
2018-09-19T04:06:38.250Z,8.57
2018-09-19T04:09:12.460Z,9.00
2018-09-19T04:11:42.537Z,9.53
2018-09-19T04:14:12.583Z,9.60
2018-09-19T04:16:42.366Z,9.27
2018-09-19T04:19:11.743Z,10.13
2018-09-19T04:21:45.293Z,10.00
2018-09-19T04:24:14.581Z,9.85
2018-09-19T04:26:43.843Z,9.53
2018-09-19T04:29:13.180Z,10.33
2018-09-19T04:31:42.827Z,9.43
2018-09-19T04:34:12.799Z,10.40
2018-09-19T04:36:42.264Z,10.33
2018-09-19T04:39:12.945Z,10.37
2018-09-19T04:41:43.062Z,10.10
2018-09-19T04:44:12.286Z,10.43
2018-09-19T04:46:41.731Z,9.43
2018-09-19T04:49:12.162Z,10.47
2018-09-19T04:51:41.965Z,10.43
2018-09-19T04:54:12.727Z,10.57
2018-09-19T04:56:42.179Z,10.47
2018-09-19T04:59:12.193Z,10.40
2018-09-19T05:01:42.521Z,11.00
2018-09-19T05:04:12.104Z,11.53
2018-09-19T05:06:41.637Z,10.60
2018-09-19T05:09:11.435Z,11.13
2018-09-19T05:11:40.976Z,10.77
2018-09-19T05:14:11.061Z,11.70
2018-09-19T05:16:40.595Z,11.60
2018-09-19T05:19:10.559Z,10.40
2018-09-19T05:21:40.182Z,10.70
2018-09-19T05:24:09.911Z,10.10
2018-09-19T05:26:40.334Z,10.55
2018-09-19T05:29:09.704Z,10.67
2018-09-19T05:31:39.906Z,10.40
2018-09-19T05:34:09.966Z,11.30
2018-09-19T05:36:40.654Z,10.50
2018-09-19T05:39:11.108Z,10.30
2018-09-19T05:41:40.487Z,10.83
2018-09-19T05:44:10.673Z,10.53
2018-09-19T05:46:40.268Z,11.95
2018-09-19T05:49:10.676Z,11.23
2018-09-19T06:00:42.063Z,10.20
2018-09-19T06:03:12.352Z,11.10
2018-09-19T06:05:41.861Z,11.03
2018-09-19T06:08:11.882Z,9.90
2018-09-19T06:10:42.616Z,10.20
2018-09-19T06:13:12.078Z,10.00
2018-09-19T06:15:41.818Z,9.70
2018-09-19T06:18:11.068Z,9.93
2018-09-19T06:20:40.983Z,8.97
2018-09-19T06:23:10.452Z,9.80
2018-09-19T06:25:40.176Z,10.10
2018-09-19T06:28:10.211Z,10.10
2018-09-19T06:30:39.753Z,9.20
2018-09-19T06:33:10.219Z,9.87
2018-09-19T06:35:39.639Z,8.67
2018-09-19T06:38:09.143Z,9.20
2018-09-19T06:40:39.016Z,8.90
2018-09-19T06:43:08.530Z,8.90
2018-09-19T06:45:38.113Z,8.40
2018-09-19T06:48:08.349Z,9.03
2018-09-19T06:50:38.086Z,8.65
2018-09-19T06:53:08.014Z,8.20
2018-09-19T06:55:37.529Z,8.10
2018-09-19T06:58:07.417Z,8.15
2018-09-19T07:00:37.379Z,8.63
2018-09-19T07:03:06.783Z,7.83
2018-09-19T07:05:36.251Z,7.83
2018-09-19T07:08:06.197Z,8.37
2018-09-19T07:10:35.882Z,8.00
2018-09-19T07:13:05.624Z,8.00
2018-09-19T07:15:36.355Z,8.30
2018-09-19T07:18:05.929Z,7.43
2018-09-19T07:20:35.393Z,8.15
2018-09-19T07:23:05.074Z,8.10
2018-09-19T07:25:34.647Z,8.30
2018-09-19T07:28:04.991Z,7.80
2018-09-19T07:30:35.037Z,7.83
2018-09-19T07:33:04.596Z,6.90
2018-09-19T07:35:34.091Z,7.10
2018-09-19T07:38:04.446Z,8.40
2018-09-19T07:40:34.081Z,7.03
2018-09-19T07:43:03.489Z,7.17
2018-09-19T07:45:33.081Z,7.57
2018-09-19T07:48:04.541Z,6.97
2018-09-19T07:50:33.946Z,7.85
2018-09-19T07:53:03.975Z,7.85
2018-09-19T07:55:35.331Z,7.57
2018-09-19T07:58:04.691Z,8.40
2018-09-19T08:00:34.122Z,6.33
2018-09-19T08:03:03.536Z,7.10
2018-09-19T08:05:33.238Z,6.83
2018-09-19T08:08:02.904Z,7.80
2018-09-19T08:10:33.422Z,6.90
2018-09-19T08:13:03.913Z,5.93
2018-09-19T08:15:34.144Z,6.77
2018-09-19T08:18:03.485Z,6.25
2018-09-19T08:20:32.954Z,5.73
2018-09-19T08:23:02.505Z,6.10
2018-09-19T08:25:32.391Z,5.77
2018-09-19T08:28:02.721Z,6.55
2018-09-19T08:30:32.716Z,5.77
2018-09-19T08:33:02.252Z,5.70
2018-09-19T08:35:31.875Z,5.43
2018-09-19T08:38:01.443Z,6.30
2018-09-19T08:40:31.578Z,6.20
2018-09-19T08:43:01.682Z,5.13
2018-09-19T08:45:32.246Z,5.80
2018-09-19T08:48:01.779Z,5.30
2018-09-19T08:50:31.199Z,5.20
2018-09-19T08:53:01.787Z,7.63
2018-09-19T08:55:31.599Z,5.03
2018-09-19T08:58:01.865Z,5.90
2018-09-19T09:00:32.034Z,5.37
2018-09-19T09:03:01.969Z,5.17
2018-09-19T09:05:31.684Z,4.83
2018-09-19T09:08:01.300Z,5.07
2018-09-19T09:10:32.124Z,5.43
2018-09-19T09:13:02.538Z,4.27
2018-09-19T09:15:32.182Z,5.67
2018-09-19T09:18:01.533Z,4.60
2018-09-19T09:20:31.234Z,4.90
2018-09-19T09:23:01.760Z,5.47
2018-09-19T09:25:31.490Z,4.87
2018-09-19T09:28:01.006Z,4.40
2018-09-19T09:30:31.293Z,4.83
2018-09-19T09:33:00.655Z,4.77
2018-09-19T09:35:30.909Z,4.15
2018-09-19T09:38:00.213Z,4.37
2018-09-19T09:40:30.416Z,4.27
2018-09-19T09:43:00.617Z,4.23
2018-09-19T09:45:30.137Z,4.13
2018-09-19T09:48:00.865Z,4.77
2018-09-19T09:50:30.689Z,4.60
2018-09-19T09:53:00.083Z,4.87
2018-09-19T09:55:30.127Z,3.73
2018-09-19T09:57:59.483Z,4.33
2018-09-19T10:00:34.346Z,4.47
2018-09-19T10:03:04.140Z,4.33
2018-09-19T10:05:33.734Z,5.33
2018-09-19T10:08:03.205Z,4.67
2018-09-19T10:10:32.703Z,5.10
2018-09-19T10:13:02.162Z,3.80
2018-09-19T10:15:31.659Z,3.97
2018-09-19T10:18:01.256Z,4.50
2018-09-19T10:20:30.762Z,3.80
2018-09-19T10:23:00.902Z,4.17
2018-09-19T10:25:30.779Z,4.10
2018-09-19T10:28:00.278Z,3.93
2018-09-19T10:30:29.949Z,3.80
2018-09-19T10:32:59.440Z,4.30
2018-09-19T10:35:28.904Z,3.93
2018-09-19T10:37:58.446Z,3.47
2018-09-19T10:40:27.960Z,3.77
2018-09-19T10:42:58.125Z,3.90
2018-09-19T10:45:27.615Z,3.70
2018-09-19T10:47:56.995Z,3.77
2018-09-19T10:50:26.514Z,3.33
2018-09-19T10:52:56.247Z,4.00
2018-09-19T10:55:25.981Z,3.63
2018-09-19T10:57:55.466Z,4.20
2018-09-19T11:00:25.283Z,4.17
2018-09-19T11:02:55.161Z,3.80
2018-09-19T11:05:24.821Z,4.00
2018-09-19T11:07:55.062Z,4.00
2018-09-19T11:10:25.467Z,3.60
2018-09-19T11:12:54.997Z,4.00
2018-09-19T11:15:24.746Z,4.13
2018-09-19T11:17:54.140Z,3.75
2018-09-19T11:20:23.956Z,3.80
2018-09-19T11:22:53.333Z,4.07
2018-09-19T11:25:22.674Z,3.83
2018-09-19T11:27:52.175Z,4.03
2018-09-19T11:30:22.296Z,4.03
2018-09-19T11:32:51.967Z,4.50
2018-09-19T11:35:21.840Z,3.73
2018-09-19T11:37:51.583Z,3.90
2018-09-19T11:40:21.104Z,3.87
2018-09-19T11:42:50.948Z,4.03
2018-09-19T11:45:20.725Z,3.90
2018-09-19T11:48:03.582Z,4.03
2018-09-19T11:50:33.104Z,3.90
2018-09-19T11:53:02.561Z,4.03
2018-09-19T11:55:31.852Z,4.03
2018-09-19T11:58:02.450Z,4.17
2018-09-19T12:00:32.005Z,4.03
2018-09-19T12:03:01.555Z,4.10
2018-09-19T12:05:31.102Z,3.63
2018-09-19T12:08:00.673Z,4.07
2018-09-19T12:10:31.032Z,3.47
2018-09-19T12:13:01.483Z,4.00
2018-09-19T12:15:31.163Z,3.60
2018-09-19T12:18:00.639Z,4.17
2018-09-19T12:20:30.743Z,3.93
2018-09-19T12:23:00.204Z,3.60
2018-09-19T12:25:29.673Z,3.40
2018-09-19T12:27:59.280Z,3.70
2018-09-19T12:30:28.916Z,4.03
2018-09-19T12:32:59.133Z,3.80
2018-09-19T12:35:28.970Z,3.65
2018-09-19T12:37:59.005Z,3.47
2018-09-19T12:40:28.762Z,3.53
2018-09-19T12:42:58.726Z,3.60
2018-09-19T12:45:28.180Z,3.40
2018-09-19T12:47:57.987Z,4.10
2018-09-19T12:50:27.991Z,3.63
2018-09-19T12:52:57.446Z,3.70
2018-09-19T12:55:27.144Z,4.73
2018-09-19T12:57:57.052Z,3.70
2018-09-19T13:00:26.643Z,3.50
2018-09-19T13:02:56.098Z,3.43
2018-09-19T13:05:25.997Z,4.07
2018-09-19T13:07:55.287Z,3.55
2018-09-19T13:10:26.415Z,3.70
2018-09-19T13:12:56.418Z,3.30
2018-09-19T13:15:25.976Z,3.20
2018-09-19T13:17:55.405Z,3.60
2018-09-19T13:20:26.561Z,3.70
2018-09-19T13:22:56.216Z,3.33
2018-09-19T13:25:26.097Z,3.07
2018-09-19T13:27:55.725Z,3.50
2018-09-19T13:30:25.294Z,4.00
2018-09-19T13:32:54.845Z,3.60
2018-09-19T13:35:24.387Z,3.30
2018-09-19T13:37:53.981Z,3.07
2018-09-19T13:40:23.593Z,3.30
2018-09-19T13:42:53.339Z,3.30
2018-09-19T13:45:22.658Z,3.13
2018-09-19T13:47:52.187Z,3.33
2018-09-19T13:50:29.837Z,3.80
2018-09-19T13:52:59.329Z,3.50
2018-09-19T13:55:29.444Z,3.23
2018-09-19T13:57:58.949Z,3.60
2018-09-19T14:00:28.550Z,3.73
2018-09-19T14:02:58.680Z,3.80
2018-09-19T14:05:28.529Z,3.53
2018-09-19T14:07:59.789Z,3.60
2018-09-19T14:10:29.125Z,3.70
2018-09-19T14:12:58.682Z,3.57
2018-09-19T14:15:28.855Z,3.40
2018-09-19T14:17:58.406Z,4.40
2018-09-19T14:20:28.572Z,4.13
2018-09-19T14:22:58.595Z,4.07
2018-09-19T14:25:28.617Z,4.00
2018-09-19T14:27:59.068Z,3.70
2018-09-19T14:30:29.028Z,3.80
2018-09-19T14:33:00.607Z,3.27
2018-09-19T14:35:31.363Z,4.00
2018-09-19T14:38:00.708Z,4.03
2018-09-19T14:40:30.437Z,3.40
2018-09-19T14:43:00.111Z,3.93
2018-09-19T14:45:29.617Z,3.55
2018-09-19T14:47:59.436Z,3.40
2018-09-19T14:50:29.683Z,3.70
2018-09-19T14:52:59.029Z,3.10
2018-09-19T14:55:28.575Z,3.33
2018-09-19T14:57:58.399Z,3.30
2018-09-19T15:00:28.820Z,3.07
2018-09-19T15:02:58.234Z,3.50
2018-09-19T15:05:27.722Z,2.93
2018-09-19T15:07:57.067Z,3.17
2018-09-19T15:10:26.696Z,3.57
2018-09-19T15:12:56.687Z,3.03
2018-09-19T15:15:26.369Z,3.40
2018-09-19T15:17:56.603Z,3.00
2018-09-19T15:20:26.190Z,3.20
2018-09-19T15:22:56.833Z,2.93
2018-09-19T15:25:26.306Z,3.30
2018-09-19T15:27:55.840Z,3.10
2018-09-19T15:30:25.547Z,3.20
2018-09-19T15:32:54.945Z,3.63
2018-09-19T15:35:24.618Z,3.23
2018-09-19T15:37:54.377Z,3.47
2018-09-19T15:40:24.473Z,3.03
2018-09-19T15:42:54.095Z,3.60
2018-09-19T15:45:24.153Z,3.20
2018-09-19T15:47:54.507Z,3.50
2018-09-19T15:50:25.061Z,3.10
2018-09-19T15:52:55.034Z,3.10
2018-09-19T15:55:25.959Z,3.20
2018-09-19T15:57:55.586Z,3.87
2018-09-19T16:00:25.603Z,3.80
2018-09-19T16:02:55.188Z,3.23
2018-09-19T16:05:24.711Z,3.63
2018-09-19T16:07:55.013Z,3.50
2018-09-19T16:10:24.514Z,3.50
2018-09-19T16:12:54.785Z,3.33
2018-09-19T16:15:25.062Z,3.73
2018-09-19T16:17:54.726Z,3.63
2018-09-19T16:20:24.361Z,3.80
2018-09-19T16:22:53.940Z,3.93
2018-09-19T16:25:23.468Z,3.83
2018-09-19T16:27:53.296Z,3.50
2018-09-19T16:30:22.902Z,3.40
2018-09-19T16:32:52.709Z,3.33
2018-09-19T16:35:22.419Z,3.57
2018-09-19T16:37:52.005Z,3.57
2018-09-19T16:40:21.802Z,4.23
2018-09-19T16:42:51.424Z,3.53
2018-09-19T16:45:20.901Z,4.87
2018-09-19T16:47:50.929Z,4.13
2018-09-19T16:50:20.669Z,4.10
2018-09-19T16:52:50.250Z,3.73
2018-09-19T16:55:19.893Z,3.53
2018-09-19T16:57:49.674Z,3.90
2018-09-19T17:00:19.454Z,3.37
2018-09-19T17:02:49.592Z,3.53
2018-09-19T17:05:19.335Z,4.00
2018-09-19T17:07:48.846Z,3.90
2018-09-19T17:10:18.764Z,3.67
2018-09-19T17:12:48.267Z,3.17
2018-09-19T17:15:18.450Z,3.80
2018-09-19T17:17:47.967Z,3.53
2018-09-19T17:20:17.778Z,3.50
2018-09-19T17:22:47.469Z,3.30
2018-09-19T17:25:18.306Z,3.80
2018-09-19T17:27:48.103Z,3.70
2018-09-19T17:30:18.428Z,3.30
2018-09-19T17:32:48.333Z,3.60
2018-09-19T17:35:17.736Z,4.13
2018-09-19T17:37:47.370Z,4.07
2018-09-19T17:40:17.407Z,3.20
2018-09-19T17:42:47.686Z,4.13
2018-09-19T17:45:17.638Z,3.43
2018-09-19T17:47:47.358Z,3.70
2018-09-19T17:50:16.696Z,4.10
2018-09-19T17:52:46.355Z,3.90
2018-09-19T17:55:16.522Z,3.37
2018-09-19T17:57:46.042Z,3.65
2018-09-19T18:00:15.725Z,3.70
2018-09-19T18:02:45.276Z,3.90
2018-09-19T18:05:15.198Z,3.90
2018-09-19T18:10:46.477Z,4.37
2018-09-19T18:13:15.988Z,4.50
2018-09-19T18:15:45.569Z,3.77
2018-09-19T18:18:14.951Z,3.87
2018-09-19T18:20:44.482Z,4.13
2018-09-19T18:23:14.035Z,4.23
2018-09-19T18:25:44.041Z,3.50
2018-09-19T18:28:13.642Z,4.27
2018-09-19T18:30:43.742Z,4.80
2018-09-19T18:33:16.963Z,4.17
2018-09-19T18:35:47.201Z,3.83
2018-09-19T18:38:16.668Z,3.83
2018-09-19T18:40:46.259Z,4.17
2018-09-19T18:43:15.584Z,4.07
2018-09-19T18:45:44.957Z,4.10
2018-09-19T18:48:14.559Z,4.10
2018-09-19T18:50:44.112Z,4.00
2018-09-19T18:53:13.443Z,4.23
2018-09-19T18:55:42.821Z,4.27
2018-09-19T18:58:12.126Z,4.10
2018-09-19T19:00:41.901Z,4.23
2018-09-19T19:03:11.601Z,4.73
2018-09-19T19:05:41.072Z,4.23
2018-09-19T19:08:10.466Z,3.60
2018-09-19T19:10:40.517Z,3.97
2018-09-19T19:13:10.574Z,3.97
2018-09-19T19:15:39.965Z,4.33
2018-09-19T19:18:09.641Z,4.00
2018-09-19T19:20:39.093Z,3.80
2018-09-19T19:23:09.504Z,4.50
2018-09-19T19:25:39.568Z,4.37
2018-09-19T19:28:08.984Z,4.13
2018-09-19T19:30:38.710Z,3.93
2018-09-19T19:33:08.688Z,3.97
2018-09-19T19:35:38.076Z,4.20
2018-09-19T19:38:07.506Z,4.33
2018-09-19T19:40:37.145Z,4.03
2018-09-19T19:43:07.044Z,4.30
2018-09-19T19:45:36.810Z,4.17
2018-09-19T19:48:06.459Z,4.03
2018-09-19T19:50:35.769Z,4.10
2018-09-19T19:53:05.745Z,4.87
2018-09-19T19:55:36.056Z,4.10
2018-09-19T19:58:05.806Z,4.07
2018-09-19T20:00:36.638Z,4.25
2018-09-19T20:03:06.365Z,4.50
2018-09-19T20:05:36.308Z,4.17
2018-09-19T20:08:06.431Z,4.65
2018-09-19T20:10:36.482Z,4.27
2018-09-19T20:13:06.807Z,4.40
2018-09-19T20:15:36.951Z,4.07
2018-09-19T20:18:06.350Z,4.27
2018-09-19T20:20:35.652Z,5.03
2018-09-19T20:23:05.061Z,3.87
2018-09-19T20:25:34.512Z,4.30
2018-09-19T20:28:04.420Z,4.57
2018-09-19T20:30:34.143Z,4.37
2018-09-19T20:33:03.866Z,4.90
2018-09-19T20:35:33.392Z,4.70
2018-09-19T20:38:03.027Z,5.03
2018-09-19T20:40:32.593Z,4.80
2018-09-19T20:43:02.042Z,4.90
2018-09-19T20:45:31.584Z,4.73
2018-09-19T20:48:00.930Z,4.60
2018-09-19T20:50:30.286Z,4.50
2018-09-19T20:53:00.189Z,5.60
2018-09-19T20:55:29.682Z,4.70
2018-09-19T20:57:59.235Z,4.80
2018-09-19T21:00:29.411Z,4.60
2018-09-19T21:02:59.348Z,4.97
2018-09-19T21:05:28.689Z,5.37
2018-09-19T21:07:58.359Z,5.00
2018-09-19T21:10:28.500Z,4.83
2018-09-19T21:12:58.099Z,5.03
2018-09-19T21:15:28.551Z,5.30
2018-09-19T21:17:58.036Z,5.80
2018-09-19T21:20:28.031Z,5.27
2018-09-19T21:22:57.803Z,5.27
2018-09-19T21:25:27.755Z,5.43
2018-09-19T21:27:57.150Z,5.27
2018-09-19T21:30:28.063Z,5.10
2018-09-19T21:32:57.411Z,5.43
2018-09-19T21:35:26.904Z,5.30
2018-09-19T21:37:56.436Z,5.00
2018-09-19T21:40:26.622Z,6.17
2018-09-19T21:42:56.209Z,5.37
2018-09-19T21:45:25.440Z,5.50
2018-09-19T21:47:54.960Z,5.80
2018-09-19T21:50:24.542Z,5.70
2018-09-19T21:52:53.878Z,6.00
2018-09-19T21:55:23.210Z,6.45
2018-09-19T21:57:52.976Z,5.63
2018-09-19T22:00:22.728Z,5.73
2018-09-19T22:02:52.212Z,6.00
2018-09-19T22:05:22.570Z,6.00
2018-09-19T22:07:52.065Z,5.90
2018-09-19T22:10:22.074Z,5.03
2018-09-19T22:12:51.649Z,5.70
2018-09-19T22:15:21.778Z,5.70
2018-09-19T22:17:51.353Z,5.17
2018-09-19T22:20:20.862Z,5.90
2018-09-19T22:22:51.116Z,5.30
2018-09-19T22:25:20.533Z,5.80
2018-09-19T22:27:50.101Z,5.40
2018-09-19T22:30:19.873Z,5.30
2018-09-19T22:32:49.387Z,5.70
2018-09-19T22:35:18.967Z,5.13
2018-09-19T22:37:49.527Z,6.70
2018-09-19T22:40:19.871Z,6.33
2018-09-19T22:42:49.401Z,7.50
2018-09-19T22:45:18.905Z,7.03
2018-09-19T22:47:48.991Z,6.97
2018-09-19T22:50:19.098Z,6.87
2018-09-19T22:52:49.226Z,7.10
2018-09-19T22:55:18.809Z,7.83
2018-09-19T22:57:48.313Z,7.50
2018-09-19T23:00:17.847Z,7.43
2018-09-19T23:02:47.431Z,8.30
2018-09-19T23:05:16.853Z,9.43
2018-09-19T23:07:47.237Z,8.80
2018-09-19T23:10:16.855Z,7.97
2018-09-19T23:12:46.299Z,8.40
2018-09-19T23:15:15.770Z,8.13
2018-09-19T23:17:45.124Z,7.75
2018-09-19T23:20:14.592Z,8.50
2018-09-19T23:22:44.134Z,7.93
2018-09-19T23:25:13.574Z,9.03
2018-09-19T23:27:42.944Z,8.80
2018-09-19T23:30:12.317Z,7.67
2018-09-19T23:32:42.020Z,8.50
2018-09-19T23:35:11.375Z,8.10
2018-09-19T23:37:40.913Z,7.47
2018-09-19T23:40:10.215Z,7.87
2018-09-19T23:42:39.774Z,8.40
2018-09-19T23:45:09.299Z,8.30
2018-09-19T23:47:38.714Z,8.83
2018-09-19T23:50:08.117Z,8.90
2018-09-19T23:52:38.523Z,8.73
2018-09-19T23:55:07.991Z,8.37
2018-09-19T23:57:37.420Z,9.30
